createdAt,value
2023-05-13T00:00:02.319Z,12.08
2023-05-13T00:02:33.990Z,11.68
2023-05-13T00:05:02.621Z,11.73
2023-05-13T00:07:30.995Z,12.47
2023-05-13T00:09:59.381Z,11.98
2023-05-13T00:12:27.923Z,11.93
2023-05-13T00:14:57.603Z,12.14
2023-05-13T00:17:26.296Z,11.92
2023-05-13T00:19:55.224Z,12.17
2023-05-13T00:22:23.580Z,11.70
2023-05-13T00:24:52.004Z,11.98
2023-05-13T00:27:20.576Z,11.89
2023-05-13T00:29:48.909Z,12.30
2023-05-13T00:32:18.643Z,12.03
2023-05-13T00:34:47.261Z,11.83
2023-05-13T00:37:15.712Z,11.78
2023-05-13T00:39:43.973Z,12.17
2023-05-13T00:42:13.739Z,11.97
2023-05-13T00:44:42.458Z,12.07
2023-05-13T00:47:11.264Z,12.01
2023-05-13T00:49:41.499Z,12.37
2023-05-13T00:52:10.059Z,11.96
2023-05-13T00:54:39.761Z,12.08
2023-05-13T00:57:08.350Z,11.99
2023-05-13T00:59:40.206Z,11.93
2023-05-13T01:02:10.707Z,11.52
2023-05-13T01:04:42.607Z,12.02
2023-05-13T01:07:13.774Z,11.53
2023-05-13T01:09:46.519Z,12.32
2023-05-13T01:12:17.429Z,11.45
2023-05-13T01:14:46.632Z,11.76
2023-05-13T01:17:16.254Z,12.14
2023-05-13T01:19:45.819Z,11.94
2023-05-13T01:22:15.886Z,12.08
2023-05-13T01:24:45.755Z,12.09
2023-05-13T01:27:14.112Z,12.03
2023-05-13T01:29:42.398Z,11.71
2023-05-13T01:32:12.003Z,11.84
2023-05-13T01:34:40.778Z,11.90
2023-05-13T01:37:09.180Z,12.15
2023-05-13T01:39:40.037Z,11.70
2023-05-13T01:42:09.315Z,11.91
2023-05-13T01:44:40.028Z,11.82
2023-05-13T01:47:08.380Z,11.87
2023-05-13T01:49:36.780Z,11.53
2023-05-13T01:52:05.780Z,12.01
2023-05-13T01:54:34.110Z,11.71
2023-05-13T01:57:04.402Z,11.58
2023-05-13T01:59:33.032Z,11.50
2023-05-13T02:02:01.552Z,11.64
2023-05-13T02:04:30.342Z,11.36
2023-05-13T02:06:59.291Z,11.35
2023-05-13T02:09:28.382Z,11.81
2023-05-13T02:11:56.994Z,11.51
2023-05-13T02:14:26.756Z,11.74
2023-05-13T02:16:56.011Z,11.72
2023-05-13T02:19:24.861Z,11.71
2023-05-13T02:21:53.448Z,11.59
2023-05-13T02:24:22.056Z,11.36
2023-05-13T02:26:50.422Z,11.32
2023-05-13T02:29:19.345Z,11.74
2023-05-13T02:31:49.076Z,11.80
2023-05-13T02:34:17.622Z,11.77
2023-05-13T02:36:46.244Z,11.57
2023-05-13T02:39:14.580Z,11.54
2023-05-13T02:41:44.490Z,11.77
2023-05-13T02:44:13.139Z,12.01
2023-05-13T02:46:44.144Z,11.60
2023-05-13T02:49:14.229Z,11.52
2023-05-13T02:51:42.548Z,11.75
2023-05-13T02:54:11.054Z,11.61
2023-05-13T02:56:40.110Z,11.60
2023-05-13T02:59:08.639Z,11.73
2023-05-13T03:01:37.163Z,11.56
2023-05-13T03:04:06.196Z,11.67
2023-05-13T03:06:35.858Z,11.64
2023-05-13T03:09:04.244Z,11.58
2023-05-13T03:11:34.243Z,11.41
2023-05-13T03:14:02.579Z,11.49
2023-05-13T03:16:31.001Z,11.78
2023-05-13T03:18:59.737Z,11.14
2023-05-13T03:21:28.203Z,11.27
2023-05-13T03:23:58.191Z,11.19
2023-05-13T03:26:27.020Z,11.73
2023-05-13T03:28:56.147Z,11.54
2023-05-13T03:31:24.712Z,11.13
2023-05-13T03:33:53.395Z,11.71
2023-05-13T03:36:22.018Z,11.82
2023-05-13T03:38:51.193Z,11.86
2023-05-13T03:41:21.188Z,11.52
2023-05-13T03:43:49.834Z,11.60
2023-05-13T03:46:18.469Z,11.71
2023-05-13T03:48:47.146Z,11.84
2023-05-13T03:51:16.012Z,11.46
2023-05-13T03:53:44.512Z,11.57
2023-05-13T03:56:15.112Z,11.30
2023-05-13T03:58:46.088Z,10.95
2023-05-13T04:01:14.729Z,10.80
2023-05-13T04:03:45.397Z,11.01
2023-05-13T04:06:14.619Z,10.70
2023-05-13T04:08:43.540Z,10.77
2023-05-13T04:11:11.822Z,11.22
2023-05-13T04:13:40.539Z,10.97
2023-05-13T04:16:10.504Z,10.62
2023-05-13T04:18:38.997Z,10.80
2023-05-13T04:21:07.711Z,11.07
2023-05-13T04:23:36.405Z,10.73
2023-05-13T04:26:04.742Z,10.77
2023-05-13T04:28:33.957Z,10.60
2023-05-13T04:31:03.048Z,10.84
2023-05-13T04:33:33.693Z,10.67
2023-05-13T04:36:02.049Z,10.65
2023-05-13T04:38:34.271Z,10.34
2023-05-13T04:41:02.915Z,10.37
2023-05-13T04:43:32.163Z,10.76
2023-05-13T04:46:01.705Z,11.21
2023-05-13T04:48:30.440Z,11.35
2023-05-13T04:51:00.875Z,10.99
2023-05-13T04:53:30.291Z,11.00
2023-05-13T04:56:00.953Z,11.31
2023-05-13T04:58:29.592Z,11.51
2023-05-13T05:00:58.397Z,11.51
2023-05-13T05:03:27.191Z,11.85
2023-05-13T05:05:55.709Z,11.34
2023-05-13T05:08:26.290Z,10.87
2023-05-13T05:10:54.972Z,11.23
2023-05-13T05:13:24.133Z,11.43
2023-05-13T05:15:52.498Z,11.17
2023-05-13T05:18:21.244Z,11.42
2023-05-13T05:20:49.969Z,11.27
2023-05-13T05:23:18.656Z,11.26
2023-05-13T05:25:53.228Z,10.98
2023-05-13T05:28:29.837Z,11.21
2023-05-13T05:30:58.573Z,11.35
2023-05-13T05:33:27.208Z,11.80
2023-05-13T05:35:55.615Z,11.40
2023-05-13T05:38:25.368Z,11.91
2023-05-13T05:40:55.289Z,11.60
2023-05-13T05:43:23.931Z,11.72
2023-05-13T05:45:53.072Z,11.74
2023-05-13T05:48:21.615Z,11.58
2023-05-13T05:50:50.431Z,10.88
2023-05-13T05:53:19.397Z,11.07
2023-05-13T05:55:48.002Z,11.26
2023-05-13T05:58:18.716Z,10.88
2023-05-13T06:00:47.185Z,10.97
2023-05-13T06:03:15.965Z,11.01
2023-05-13T06:05:44.395Z,11.25
2023-05-13T06:08:13.475Z,11.30
2023-05-13T06:10:42.088Z,11.65
2023-05-13T06:13:10.449Z,11.41
2023-05-13T06:15:40.264Z,11.63
2023-05-13T06:18:09.002Z,11.53
2023-05-13T06:20:37.421Z,12.07
2023-05-13T06:23:05.796Z,12.11
2023-05-13T06:25:34.390Z,11.94
2023-05-13T06:28:03.136Z,12.26
2023-05-13T06:30:31.774Z,12.64
2023-05-13T06:33:02.641Z,12.33
2023-05-13T06:35:31.436Z,12.63
2023-05-13T06:38:00.318Z,12.44
2023-05-13T06:40:29.299Z,12.14
2023-05-13T06:42:57.903Z,12.22
2023-05-13T06:45:29.739Z,12.30
2023-05-13T06:47:58.583Z,12.68
2023-05-13T06:50:28.417Z,12.07
2023-05-13T06:53:01.105Z,11.91
2023-05-13T06:55:29.480Z,11.62
2023-05-13T06:57:58.063Z,11.60
2023-05-13T07:00:26.601Z,11.72
2023-05-13T07:02:54.958Z,11.82
2023-05-13T07:05:23.681Z,11.80
2023-05-13T07:07:53.819Z,12.20
2023-05-13T07:10:22.447Z,11.73
2023-05-13T07:12:51.418Z,12.00
2023-05-13T07:15:20.058Z,12.00
2023-05-13T07:17:48.682Z,11.99
2023-05-13T07:20:22.134Z,12.19
2023-05-13T07:22:51.084Z,12.65
2023-05-13T07:25:21.051Z,13.10
2023-05-13T07:27:49.358Z,13.02
2023-05-13T07:30:17.787Z,12.36
2023-05-13T07:32:46.393Z,12.79
2023-05-13T07:35:16.680Z,12.72
2023-05-13T07:37:48.490Z,12.68
2023-05-13T07:40:17.912Z,12.74
2023-05-13T07:42:48.110Z,13.33
2023-05-13T07:45:16.781Z,13.10
2023-05-13T07:47:45.150Z,12.72
2023-05-13T07:50:13.543Z,12.94
2023-05-13T07:52:42.279Z,12.91
2023-05-13T07:55:10.953Z,13.42
2023-05-13T07:57:39.246Z,13.42
2023-05-13T08:00:10.086Z,13.15
2023-05-13T08:02:41.111Z,13.66
2023-05-13T08:05:10.163Z,13.17
2023-05-13T08:07:38.609Z,13.51
2023-05-13T08:10:07.691Z,13.68
2023-05-13T08:12:36.599Z,13.43
2023-05-13T08:15:06.020Z,13.11
2023-05-13T08:17:35.869Z,13.49
2023-05-13T08:20:04.603Z,13.10
2023-05-13T08:22:33.903Z,13.17
2023-05-13T08:25:03.379Z,12.97
2023-05-13T08:27:32.272Z,12.95
2023-05-13T08:30:00.700Z,13.68
2023-05-13T08:32:29.047Z,13.41
2023-05-13T08:34:59.390Z,12.84
2023-05-13T08:37:27.753Z,13.02
2023-05-13T08:39:57.608Z,13.22
2023-05-13T08:42:26.445Z,12.65
2023-05-13T08:44:54.813Z,13.10
2023-05-13T08:47:26.225Z,12.43
2023-05-13T08:49:54.903Z,12.72
2023-05-13T08:52:24.601Z,12.72
2023-05-13T08:54:52.901Z,12.73
2023-05-13T08:57:21.644Z,12.78
2023-05-13T08:59:49.995Z,12.68
2023-05-13T09:02:18.731Z,12.63
2023-05-13T09:04:47.673Z,13.23
2023-05-13T09:07:16.042Z,13.05
2023-05-13T09:09:45.731Z,13.59
2023-05-13T09:12:14.373Z,13.99
2023-05-13T09:14:43.144Z,13.01
2023-05-13T09:17:11.502Z,13.58
2023-05-13T09:19:40.201Z,13.72
2023-05-13T09:22:14.518Z,13.42
2023-05-13T09:24:45.429Z,13.55
2023-05-13T09:27:13.796Z,13.77
2023-05-13T09:29:42.147Z,14.15
2023-05-13T09:32:10.720Z,14.37
2023-05-13T09:34:39.656Z,14.36
2023-05-13T09:37:09.096Z,14.21
2023-05-13T09:39:39.850Z,14.55
2023-05-13T09:42:13.633Z,14.29
2023-05-13T09:44:42.173Z,13.72
2023-05-13T09:47:12.366Z,14.09
2023-05-13T09:49:41.629Z,14.66
2023-05-13T09:52:11.830Z,14.59
2023-05-13T09:54:40.417Z,14.46
2023-05-13T09:57:08.719Z,14.69
2023-05-13T09:59:38.676Z,14.97
2023-05-13T10:02:07.426Z,15.07
2023-05-13T10:04:36.311Z,15.56
2023-05-13T10:07:05.229Z,14.50
2023-05-13T10:09:35.934Z,14.33
2023-05-13T10:12:05.045Z,14.87
2023-05-13T10:14:33.392Z,14.68
2023-05-13T10:17:03.174Z,14.42
2023-05-13T10:19:31.848Z,14.39
2023-05-13T10:22:00.166Z,14.81
2023-05-13T10:24:29.075Z,14.69
2023-05-13T10:26:57.722Z,14.87
2023-05-13T10:29:26.085Z,15.57
2023-05-13T10:31:54.457Z,15.59
2023-05-13T10:34:24.513Z,15.65
2023-05-13T10:37:05.137Z,14.89
2023-05-13T10:39:38.608Z,14.73
2023-05-13T10:42:17.814Z,13.96
2023-05-13T10:44:46.461Z,14.59
2023-05-13T10:47:14.776Z,14.77
2023-05-13T10:49:48.141Z,14.63
2023-05-13T10:52:16.826Z,15.10
2023-05-13T10:54:45.259Z,14.71
2023-05-13T10:57:13.576Z,14.50
2023-05-13T10:59:50.552Z,14.81
2023-05-13T11:02:21.953Z,14.32
2023-05-13T11:05:00.443Z,14.70
2023-05-13T11:07:29.727Z,15.29
2023-05-13T11:09:58.373Z,14.69
2023-05-13T11:12:26.644Z,14.45
2023-05-13T11:14:56.587Z,14.46
2023-05-13T11:17:25.264Z,14.90
2023-05-13T11:19:53.857Z,15.35
2023-05-13T11:22:24.712Z,14.64
2023-05-13T11:25:06.436Z,14.60
2023-05-13T11:27:35.213Z,14.68
2023-05-13T11:30:04.709Z,15.05
2023-05-13T11:32:53.307Z,15.00
2023-05-13T11:35:22.088Z,15.02
2023-05-13T11:37:51.821Z,14.68
2023-05-13T11:40:23.757Z,14.63
2023-05-13T11:42:52.531Z,15.00
2023-05-13T11:45:39.630Z,14.36
2023-05-13T11:48:18.973Z,14.00
2023-05-13T11:50:47.372Z,14.66
2023-05-13T11:53:22.114Z,14.80
2023-05-13T11:55:50.451Z,14.96
2023-05-13T11:58:19.028Z,14.61
2023-05-13T12:00:47.307Z,14.51
2023-05-13T12:03:16.532Z,15.11
2023-05-13T12:05:45.211Z,14.98
2023-05-13T12:08:13.564Z,15.02
2023-05-13T12:10:45.437Z,14.86
2023-05-13T12:13:13.743Z,15.08
2023-05-13T12:15:42.559Z,15.23
2023-05-13T12:18:11.148Z,15.09
2023-05-13T12:20:39.565Z,15.36
2023-05-13T12:23:08.287Z,15.75
2023-05-13T12:25:40.707Z,15.70
2023-05-13T12:28:11.893Z,15.75
2023-05-13T12:30:40.945Z,15.81
2023-05-13T12:33:13.860Z,15.39
2023-05-13T12:35:42.121Z,15.32
2023-05-13T12:38:15.192Z,15.01
2023-05-13T12:40:43.487Z,15.01
2023-05-13T12:43:14.171Z,14.75
2023-05-13T12:45:44.932Z,14.88
2023-05-13T12:48:14.487Z,14.64
2023-05-13T12:50:42.794Z,14.56
2023-05-13T12:53:11.210Z,14.74
2023-05-13T12:55:40.260Z,15.30
2023-05-13T12:58:11.028Z,14.69
2023-05-13T13:00:41.105Z,15.53
2023-05-13T13:03:09.617Z,15.47
2023-05-13T13:05:38.064Z,15.45
2023-05-13T13:08:06.802Z,15.37
2023-05-13T13:10:35.140Z,15.21
2023-05-13T13:13:03.544Z,15.36
2023-05-13T13:15:32.186Z,15.85
2023-05-13T13:18:02.257Z,15.87
2023-05-13T13:20:30.670Z,15.76
2023-05-13T13:23:18.145Z,15.99
2023-05-13T13:25:46.435Z,16.03
2023-05-13T13:28:15.046Z,16.77
2023-05-13T13:30:46.606Z,15.98
2023-05-13T13:33:17.028Z,16.07
2023-05-13T13:35:45.475Z,16.02
2023-05-13T13:38:14.058Z,15.89
2023-05-13T13:40:42.619Z,15.42
2023-05-13T13:43:10.931Z,15.98
2023-05-13T13:45:39.269Z,15.77
2023-05-13T13:48:08.401Z,15.77
2023-05-13T13:50:38.257Z,15.58
2023-05-13T13:53:06.637Z,15.39
2023-05-13T13:55:35.207Z,15.22
2023-05-13T13:58:03.576Z,15.08
2023-05-13T14:00:31.911Z,15.37
2023-05-13T14:03:02.582Z,16.17
2023-05-13T14:05:31.120Z,15.74
2023-05-13T14:08:00.926Z,15.56
2023-05-13T14:10:29.621Z,15.73
2023-05-13T14:12:57.960Z,16.33
2023-05-13T14:15:28.847Z,16.29
2023-05-13T14:17:57.599Z,15.44
2023-05-13T14:20:28.787Z,15.58
2023-05-13T14:22:57.231Z,16.55
2023-05-13T14:25:27.605Z,16.85
2023-05-13T14:27:56.009Z,16.03
2023-05-13T14:30:24.527Z,15.82
2023-05-13T14:32:53.249Z,15.45
2023-05-13T14:35:21.556Z,15.74
2023-05-13T14:37:49.839Z,16.06
2023-05-13T14:40:18.471Z,16.17
2023-05-13T14:42:49.440Z,15.67
2023-05-13T14:45:18.760Z,15.91
2023-05-13T14:47:47.318Z,16.25
2023-05-13T14:50:16.109Z,16.30
2023-05-13T14:52:44.678Z,16.71
2023-05-13T14:55:14.051Z,16.53
2023-05-13T14:57:42.346Z,16.72
2023-05-13T15:00:13.072Z,16.48
2023-05-13T15:02:41.504Z,16.39
2023-05-13T15:05:09.989Z,15.96
2023-05-13T15:07:38.550Z,15.76
2023-05-13T15:10:07.497Z,16.38
2023-05-13T15:12:35.881Z,16.36
2023-05-13T15:15:04.768Z,15.81
2023-05-13T15:17:34.490Z,15.75
2023-05-13T15:20:03.015Z,15.83
2023-05-13T15:22:34.018Z,15.57
2023-05-13T15:25:02.701Z,15.93
2023-05-13T15:27:31.010Z,16.04
2023-05-13T15:29:59.576Z,15.94
2023-05-13T15:32:27.907Z,16.24
2023-05-13T15:34:57.648Z,16.05
2023-05-13T15:37:26.211Z,15.62
2023-05-13T15:39:55.608Z,15.89
2023-05-13T15:42:24.005Z,15.67
2023-05-13T15:44:52.644Z,15.42
2023-05-13T15:47:21.122Z,15.51
2023-05-13T15:49:50.803Z,14.80
2023-05-13T15:52:20.844Z,15.38
2023-05-13T15:54:49.173Z,15.76
2023-05-13T15:57:19.131Z,15.27
2023-05-13T15:59:47.808Z,15.75
2023-05-13T16:02:18.339Z,16.25
2023-05-13T16:04:47.073Z,15.76
2023-05-13T16:07:15.464Z,15.57
2023-05-13T16:09:45.129Z,16.23
2023-05-13T16:12:13.815Z,16.73
2023-05-13T16:14:42.764Z,16.25
2023-05-13T16:17:11.173Z,15.86
2023-05-13T16:19:39.771Z,15.75
2023-05-13T16:22:30.510Z,16.28
2023-05-13T16:25:01.802Z,16.20
2023-05-13T16:27:30.448Z,15.94
2023-05-13T16:29:59.348Z,15.37
2023-05-13T16:32:27.735Z,15.41
2023-05-13T16:34:56.416Z,15.33
2023-05-13T16:37:25.001Z,15.45
2023-05-13T16:39:53.547Z,15.47
2023-05-13T16:42:23.411Z,15.60
2023-05-13T16:44:52.590Z,15.44
2023-05-13T16:47:21.866Z,15.88
2023-05-13T16:49:50.972Z,15.95
2023-05-13T16:52:19.499Z,15.87
2023-05-13T16:54:47.943Z,16.21
2023-05-13T16:57:16.391Z,16.25
2023-05-13T16:59:46.423Z,15.26
2023-05-13T17:02:14.866Z,15.66
2023-05-13T17:04:43.620Z,15.55
2023-05-13T17:07:12.323Z,15.86
2023-05-13T17:09:40.850Z,16.17
2023-05-13T17:12:09.465Z,16.25
2023-05-13T17:14:38.088Z,16.01
2023-05-13T17:17:07.955Z,16.17
2023-05-13T17:19:36.284Z,15.91
2023-05-13T17:22:05.001Z,16.05
2023-05-13T17:24:33.340Z,15.87
2023-05-13T17:27:01.815Z,15.40
2023-05-13T17:29:30.412Z,15.58
2023-05-13T17:31:58.725Z,15.69
2023-05-13T17:34:28.411Z,15.27
2023-05-13T17:36:56.977Z,15.29
2023-05-13T17:39:25.442Z,15.44
2023-05-13T17:41:53.838Z,15.19
2023-05-13T17:44:23.971Z,14.88
2023-05-13T17:46:52.498Z,15.64
2023-05-13T17:49:20.978Z,15.23
2023-05-13T17:51:51.274Z,15.44
2023-05-13T17:54:19.600Z,15.61
2023-05-13T17:56:47.934Z,15.62
2023-05-13T17:59:16.598Z,15.07
2023-05-13T18:01:45.343Z,15.02
2023-05-13T18:04:14.001Z,14.65
2023-05-13T18:06:42.299Z,14.66
2023-05-13T18:09:11.978Z,14.81
2023-05-13T18:11:40.615Z,14.67
2023-05-13T18:14:09.129Z,14.49
2023-05-13T18:16:37.562Z,14.38
2023-05-13T18:19:06.887Z,13.85
2023-05-13T18:21:35.349Z,14.57
2023-05-13T18:24:03.711Z,14.43
2023-05-13T18:26:33.703Z,14.52
2023-05-13T18:29:02.034Z,14.48
2023-05-13T18:31:34.671Z,14.35
2023-05-13T18:34:03.882Z,14.34
2023-05-13T18:36:34.904Z,14.53
2023-05-13T18:39:03.846Z,14.76
2023-05-13T18:41:33.582Z,14.99
2023-05-13T18:44:02.072Z,14.71
2023-05-13T18:46:30.876Z,14.52
2023-05-13T18:49:00.408Z,14.09
2023-05-13T18:51:28.889Z,14.37
2023-05-13T18:53:57.516Z,14.39
2023-05-13T18:56:26.271Z,14.62
2023-05-13T18:58:56.248Z,14.55
2023-05-13T19:01:25.096Z,14.40
2023-05-13T19:03:53.998Z,14.34
2023-05-13T19:06:22.677Z,14.14
2023-05-13T19:08:51.634Z,13.92
2023-05-13T19:11:20.055Z,14.57
2023-05-13T19:13:48.641Z,14.54
2023-05-13T19:16:19.135Z,14.27
2023-05-13T19:18:47.863Z,13.85
2023-05-13T19:21:16.618Z,14.04
2023-05-13T19:23:44.972Z,14.26
2023-05-13T19:26:13.830Z,14.50
2023-05-13T19:28:43.835Z,14.32
2023-05-13T19:31:12.409Z,13.93
2023-05-13T19:33:43.403Z,13.39
2023-05-13T19:36:13.393Z,13.34
2023-05-13T19:38:41.731Z,13.75
2023-05-13T19:41:10.118Z,14.02
2023-05-13T19:43:38.727Z,14.04
2023-05-13T19:46:07.253Z,14.03
2023-05-13T19:48:35.734Z,14.18
2023-05-13T19:51:06.218Z,14.19
2023-05-13T19:53:34.575Z,13.66
2023-05-13T19:56:02.879Z,13.36
2023-05-13T19:58:31.528Z,13.86
2023-05-13T20:00:59.829Z,13.79
2023-05-13T20:03:28.498Z,13.72
2023-05-13T20:05:57.226Z,14.07
2023-05-13T20:08:29.563Z,13.71
2023-05-13T20:10:58.433Z,13.87
2023-05-13T20:13:26.837Z,13.70
2023-05-13T20:15:55.226Z,13.41
2023-05-13T20:18:24.096Z,13.83
2023-05-13T20:20:53.781Z,13.43
2023-05-13T20:23:22.068Z,13.25
2023-05-13T20:25:52.805Z,13.06
2023-05-13T20:28:21.210Z,13.01
2023-05-13T20:30:52.418Z,12.85
2023-05-13T20:33:21.097Z,12.96
2023-05-13T20:35:49.749Z,13.08
2023-05-13T20:38:18.186Z,13.05
2023-05-13T20:40:47.456Z,12.90
2023-05-13T20:43:17.474Z,12.89
2023-05-13T20:45:46.057Z,13.04
2023-05-13T20:48:14.790Z,13.27
2023-05-13T20:50:43.181Z,13.54
2023-05-13T20:53:11.537Z,12.86
2023-05-13T20:55:40.123Z,13.10
2023-05-13T20:58:08.439Z,12.69
2023-05-13T21:00:38.123Z,12.92
2023-05-13T21:03:06.815Z,13.19
2023-05-13T21:05:35.311Z,12.87
2023-05-13T21:08:03.626Z,12.90
2023-05-13T21:10:32.297Z,13.12
2023-05-13T21:13:01.280Z,12.85
2023-05-13T21:15:29.720Z,12.95
2023-05-13T21:17:59.770Z,13.01
2023-05-13T21:20:28.235Z,13.07
2023-05-13T21:22:56.558Z,13.24
2023-05-13T21:25:25.177Z,13.17
2023-05-13T21:27:53.570Z,13.38
2023-05-13T21:30:22.090Z,13.27
2023-05-13T21:32:50.867Z,13.55
2023-05-13T21:35:20.675Z,13.55
2023-05-13T21:37:49.715Z,13.26
2023-05-13T21:40:19.561Z,13.16
2023-05-13T21:42:47.911Z,13.06
2023-05-13T21:45:16.365Z,13.13
2023-05-13T21:47:45.100Z,13.16
2023-05-13T21:50:13.461Z,12.96
2023-05-13T21:52:43.288Z,13.09
2023-05-13T21:55:12.034Z,12.97
2023-05-13T21:57:40.582Z,13.04
2023-05-13T22:00:10.764Z,13.00
2023-05-13T22:02:45.124Z,12.42
2023-05-13T22:05:14.298Z,12.55
2023-05-13T22:07:43.972Z,12.72
2023-05-13T22:10:12.503Z,12.61
2023-05-13T22:12:44.188Z,12.88
2023-05-13T22:15:12.766Z,12.54
2023-05-13T22:17:41.496Z,12.60
2023-05-13T22:20:10.533Z,12.96
2023-05-13T22:22:38.904Z,12.54
2023-05-13T22:25:09.308Z,13.06
2023-05-13T22:27:37.642Z,12.96
2023-05-13T22:30:06.654Z,12.64
2023-05-13T22:32:36.960Z,12.70
2023-05-13T22:35:05.779Z,12.99
2023-05-13T22:37:34.336Z,12.67
2023-05-13T22:40:03.010Z,12.78
2023-05-13T22:42:32.704Z,12.93
2023-05-13T22:45:01.090Z,12.94
2023-05-13T22:47:30.367Z,12.80
2023-05-13T22:49:58.764Z,12.97
2023-05-13T22:52:27.081Z,13.13
2023-05-13T22:54:56.008Z,12.67
2023-05-13T22:57:26.429Z,12.62
2023-05-13T22:59:56.110Z,12.71
2023-05-13T23:02:24.827Z,12.94
2023-05-13T23:04:53.335Z,13.07
2023-05-13T23:07:21.663Z,12.99
2023-05-13T23:09:50.377Z,13.19
2023-05-13T23:12:18.647Z,13.01
2023-05-13T23:14:46.986Z,13.05
2023-05-13T23:17:16.840Z,13.37
2023-05-13T23:19:45.186Z,12.75
2023-05-13T23:22:13.541Z,13.22
2023-05-13T23:24:42.106Z,13.20
2023-05-13T23:27:10.396Z,13.53
2023-05-13T23:29:38.720Z,13.41
2023-05-13T23:32:07.485Z,12.97
2023-05-13T23:34:37.205Z,13.12
2023-05-13T23:37:05.829Z,12.80
2023-05-13T23:39:37.489Z,13.17
2023-05-13T23:42:05.921Z,13.30
2023-05-13T23:44:34.578Z,13.02
2023-05-13T23:47:03.439Z,12.94
2023-05-13T23:49:31.727Z,13.18
2023-05-13T23:52:01.751Z,13.23
2023-05-13T23:54:30.014Z,13.05
2023-05-13T23:56:58.333Z,13.30
2023-05-13T23:59:27.049Z,13.17
